YRP weather

Ottawa / Carp Airport
Ottawa, Ontario, Canada

Public forecast

Using degrees Celsius for public forecast. Weather courtesy of forecast.io.

METAR (pilot weather report)

Closest report is Ottawa Macdonald-Cartier International Airport, 14.9 nm (27.6 km) E. Retrieved 2019/03/26 01:00 UTC (40 minutes ago):

CYOW 260100Z 27006KT 15SM SKC M03/M14 A3009 RMK SLP200

TAF (pilot weather forecast)

Forecast is more than 12 hours old.

Closest forecast is Ottawa Macdonald-Cartier International Airport, 14.9 nm (27.6 km) E. Retrieved 2019/03/25 00:42 UTC (1 day ago):

TAF CYOW 252339Z 2600/2624 29007KT P6SM SKC FM261000 29005KT P6SM SKC BECMG 2614/2616 27010G20KT BECMG 2623/2624 28008KT RMK NXT FCST BY 260300Z